Au Gres, Michigan
Current Conditions -  °F | °C
As of 11:14 AM on Wednesday 22 Oct 2014 (Local Time) from KOSC Reporting Station
Overcast Overcast  
Wind Chill: 39°   Ceiling: 1900
Heat Index: 44°   Visibility: 10mi
Dew Point: 37°   Wind: 9mph
Humidity: 78%   Direction: 360°N
Pressure: 30.38"   Gusts: NA
Location:  44.05°N, 83.7°W
Report Text: KOSC 221514Z AUTO 36008KT 10SM OVC019 06/02 A3038 RMK AO2 T00660030
Loading
Personal Weather Stations






























Interactive Weather Map
Tropical Storm Tracking
New forecast layout! Learn more

10-Day Weather Forecast

Advertisements
Track Severe Weather on mobile